PWSweather.com
Personal Weather Stations
Station Observations
AF1HS
North Haven, CT 06473

North Haven, CT 06473

Lat: 41.3733, Lon: -72.8413

Elevation: 85.3

Station Type: Oregon Scientific WMR968

http://www.af1hs.com/wx/index.php

Latest ConditionsUpdated 10:30:02 AM EDT Tuesday, Jul 23, 2019
Currently Today's Max Today's Min Today's Average
Temperature 64.1°F17.8°C 65.3°F18.5°C 61.2°F16.2°C 62.8°F17.1°C
Dew Point 52.1°F11.2°C 59.7°F15.4°C 52.1°F11.2°C 58.4°F14.7°C
Winds Calm Calm 6.9 mph -11.1 kmh - - 2.7 mph 4.3 kmh
Wind Gusts -- 10.4 mph16.7 kmh - -
Humidity 65% 90% 65% 86%
Pressure 29.72 in1006.4 mb 29.72 in1006.4 mb 29.66 in1004.4 mb -
Hour Temp Dew Point Humidity Winds Wind Gusts Pressure Precip Precip Rate Daily Precip Total
10:30 AM 64.1°F17.8°C 52.1°F11.2°C 65% Calm Calm -- 29.72 in1006.4 mb - 0.00 in0.0 mm 0.00 in0.0 mm
10:20 AM 63.9°F17.7°C 56.5°F13.6°C 77% Calm Calm -- 29.72 in1006.4 mb - 0.00 in0.0 mm 0.00 in0.0 mm
10:10 AM 63.5°F17.5°C 59.2°F15.1°C 86% Calm Calm -- 29.72 in1006.4 mb - 0.00 in0.0 mm 0.00 in0.0 mm
10:00 AM 63.0°F17.2°C 59.7°F15.4°C 89% Calm Calm -- 29.72 in1006.4 mb - 0.00 in0.0 mm 0.00 in0.0 mm
09:50 AM 62.6°F17.0°C 59.6°F15.3°C 90% Calm Calm -- 29.71 in1006.1 mb - 0.00 in0.0 mm 0.00 in0.0 mm
09:40 AM 61.9°F16.6°C 58.9°F14.9°C 90% Calm Calm -- 29.69 in1005.4 mb - 0.00 in0.0 mm 0.00 in0.0 mm
09:30 AM 61.7°F16.5°C 58.7°F14.8°C 90% Calm Calm -- 29.69 in1005.4 mb - 0.00 in0.0 mm 0.00 in0.0 mm
09:20 AM 61.5°F16.4°C 58.6°F14.8°C 90% Calm Calm -- 29.69 in1005.4 mb - 0.00 in0.0 mm 0.00 in0.0 mm
09:10 AM 61.5°F16.4°C 58.6°F14.8°C 90% Calm Calm -- 29.69 in1005.4 mb - 0.00 in0.0 mm 0.00 in0.0 mm
09:00 AM 61.5°F16.4°C 58.6°F14.8°C 90% Calm Calm -- 29.69 in1005.4 mb - 0.00 in0.0 mm 0.00 in0.0 mm
08:50 AM 61.5°F16.4°C 58.6°F14.8°C 90% Calm Calm -- 29.69 in1005.4 mb - 0.00 in0.0 mm 0.00 in0.0 mm
08:40 AM 61.5°F16.4°C 58.6°F14.8°C 90% Calm Calm -- 29.69 in1005.4 mb - 0.00 in0.0 mm 0.00 in0.0 mm
08:30 AM 61.5°F16.4°C 58.6°F14.8°C 90% Calm Calm -- 29.69 in1005.4 mb - 0.00 in0.0 mm 0.00 in0.0 mm
08:20 AM 61.4°F16.3°C 58.2°F14.6°C 89% Calm Calm -- 29.69 in1005.4 mb - 0.00 in0.0 mm 0.00 in0.0 mm
08:10 AM 61.3°F16.3°C 58.1°F14.5°C 89% 6.9 mph NNW11.1 kmh NNW 10.4 mph16.7 kmh 29.69 in1005.4 mb - 0.00 in0.0 mm 0.00 in0.0 mm
08:00 AM 61.3°F16.3°C 58.1°F14.5°C 89% 4.6 mph NNW7.4 kmh NNW 5.8 mph9.3 kmh 29.69 in1005.4 mb - 0.00 in0.0 mm 0.00 in0.0 mm
07:50 AM 61.5°F16.4°C 58.2°F14.6°C 89% 5.8 mph NNW9.3 kmh NNW 5.8 mph9.3 kmh 29.69 in1005.4 mb - 0.00 in0.0 mm 0.00 in0.0 mm
07:40 AM 61.5°F16.4°C 58.2°F14.6°C 89% 4.6 mph NNW7.4 kmh NNW 5.8 mph9.3 kmh 29.69 in1005.4 mb - 0.00 in0.0 mm 0.00 in0.0 mm
07:30 AM 61.5°F16.4°C 58.2°F14.6°C 89% 4.6 mph NW7.4 kmh NW 8.1 mph13.0 kmh 29.69 in1005.4 mb - 0.00 in0.0 mm 0.00 in0.0 mm
07:20 AM 61.5°F16.4°C 58.2°F14.6°C 89% 2.3 mph N3.7 kmh N 5.8 mph9.3 kmh 29.69 in1005.4 mb - 0.00 in0.0 mm 0.00 in0.0 mm
07:10 AM 61.3°F16.3°C 58.1°F14.5°C 89% 2.3 mph NNW3.7 kmh NNW 3.5 mph5.6 kmh 29.69 in1005.4 mb - 0.00 in0.0 mm 0.00 in0.0 mm
07:00 AM 61.3°F16.3°C 58.1°F14.5°C 89% 3.5 mph N5.6 kmh N 5.8 mph9.3 kmh 29.69 in1005.4 mb - 0.00 in0.0 mm 0.00 in0.0 mm
06:50 AM 61.2°F16.2°C 57.9°F14.4°C 89% 4.6 mph N7.4 kmh N 6.9 mph11.1 kmh 29.69 in1005.4 mb - 0.00 in0.0 mm 0.00 in0.0 mm
06:40 AM 61.3°F16.3°C 58.1°F14.5°C 89% 4.6 mph N7.4 kmh N 8.1 mph13.0 kmh 29.69 in1005.4 mb - 0.00 in0.0 mm 0.00 in0.0 mm
06:30 AM 61.2°F16.2°C 57.9°F14.4°C 89% 5.8 mph N9.3 kmh N 6.9 mph11.1 kmh 29.66 in1004.4 mb - 0.00 in0.0 mm 0.00 in0.0 mm
06:20 AM 61.2°F16.2°C 57.9°F14.4°C 89% 5.8 mph N9.3 kmh N 8.1 mph13.0 kmh 29.66 in1004.4 mb - 0.00 in0.0 mm 0.00 in0.0 mm
06:10 AM 61.3°F16.3°C 57.8°F14.3°C 88% 6.9 mph NNW11.1 kmh NNW 9.2 mph14.8 kmh 29.66 in1004.4 mb - 0.00 in0.0 mm 0.00 in0.0 mm
06:00 AM 61.7°F16.5°C 58.1°F14.5°C 88% 4.6 mph NNW7.4 kmh NNW 8.1 mph13.0 kmh 29.69 in1005.4 mb - 0.00 in0.0 mm 0.00 in0.0 mm
05:50 AM 61.9°F16.6°C 58.3°F14.6°C 88% 5.8 mph NNW9.3 kmh NNW 10.4 mph16.7 kmh 29.69 in1005.4 mb - 0.00 in0.0 mm 0.00 in0.0 mm
05:40 AM 62.1°F16.7°C 58.5°F14.7°C 88% 4.6 mph NNW7.4 kmh NNW 9.2 mph14.8 kmh 29.69 in1005.4 mb - 0.00 in0.0 mm 0.00 in0.0 mm
05:30 AM 62.2°F16.8°C 58.3°F14.6°C 87% 3.5 mph NNW5.6 kmh NNW 5.8 mph9.3 kmh 29.69 in1005.4 mb - 0.00 in0.0 mm 0.00 in0.0 mm
05:20 AM 62.2°F16.8°C 58.3°F14.6°C 87% Calm Calm 3.5 mph5.6 kmh 29.69 in1005.4 mb - 0.00 in0.0 mm 0.00 in0.0 mm
05:10 AM 62.4°F16.9°C 58.5°F14.7°C 87% 2.3 mph NNW3.7 kmh NNW 3.5 mph5.6 kmh 29.69 in1005.4 mb - 0.00 in0.0 mm 0.00 in0.0 mm
05:00 AM 62.4°F16.9°C 58.2°F14.6°C 86% 4.6 mph NNW7.4 kmh NNW 8.1 mph13.0 kmh 29.69 in1005.4 mb - 0.00 in0.0 mm 0.00 in0.0 mm
04:50 AM 62.9°F17.2°C 58.6°F14.8°C 86% 3.5 mph NW5.6 kmh NW 4.6 mph7.4 kmh 29.69 in1005.4 mb - 0.00 in0.0 mm 0.00 in0.0 mm
04:40 AM 62.8°F17.1°C 58.5°F14.7°C 86% Calm Calm -- 29.69 in1005.4 mb - 0.00 in0.0 mm 0.00 in0.0 mm
04:30 AM 62.8°F17.1°C 58.5°F14.7°C 86% 1.2 mph NNW1.9 kmh NNW -- 29.69 in1005.4 mb - 0.00 in0.0 mm 0.00 in0.0 mm
04:20 AM 62.8°F17.1°C 58.5°F14.7°C 86% 1.2 mph NNW1.9 kmh NNW 3.5 mph5.6 kmh 29.69 in1005.4 mb - 0.00 in0.0 mm 0.00 in0.0 mm
04:10 AM 62.8°F17.1°C 58.5°F14.7°C 86% 3.5 mph NNW5.6 kmh NNW 3.5 mph5.6 kmh 29.69 in1005.4 mb - 0.00 in0.0 mm 0.00 in0.0 mm
04:00 AM 62.8°F17.1°C 58.2°F14.6°C 85% 3.5 mph NW5.6 kmh NW 5.8 mph9.3 kmh 29.69 in1005.4 mb - 0.00 in0.0 mm 0.00 in0.0 mm
03:50 AM 62.8°F17.1°C 58.2°F14.6°C 85% 4.6 mph NNW7.4 kmh NNW 8.1 mph13.0 kmh 29.69 in1005.4 mb - 0.00 in0.0 mm 0.00 in0.0 mm
03:40 AM 63.0°F17.2°C 58.0°F14.4°C 84% 3.5 mph NNW5.6 kmh NNW 3.5 mph5.6 kmh 29.69 in1005.4 mb - 0.00 in0.0 mm 0.00 in0.0 mm
03:30 AM 63.0°F17.2°C 58.0°F14.4°C 84% Calm Calm -- 29.69 in1005.4 mb - 0.00 in0.0 mm 0.00 in0.0 mm
03:20 AM 63.1°F17.3°C 58.2°F14.6°C 84% 3.5 mph NNW5.6 kmh NNW 5.8 mph9.3 kmh 29.69 in1005.4 mb - 0.00 in0.0 mm 0.00 in0.0 mm
03:10 AM 63.3°F17.4°C 58.4°F14.7°C 84% 5.8 mph N9.3 kmh N 8.1 mph13.0 kmh 29.69 in1005.4 mb - 0.00 in0.0 mm 0.00 in0.0 mm
03:00 AM 63.5°F17.5°C 58.6°F14.8°C 84% 3.5 mph N5.6 kmh N 5.8 mph9.3 kmh 29.69 in1005.4 mb - 0.00 in0.0 mm 0.00 in0.0 mm
02:50 AM 63.5°F17.5°C 58.6°F14.8°C 84% 4.6 mph NNW7.4 kmh NNW 6.9 mph11.1 kmh 29.69 in1005.4 mb - 0.00 in0.0 mm 0.00 in0.0 mm
02:40 AM 63.7°F17.6°C 58.4°F14.7°C 83% 3.5 mph NNW5.6 kmh NNW 3.5 mph5.6 kmh 29.69 in1005.4 mb - 0.00 in0.0 mm 0.00 in0.0 mm
02:30 AM 64.0°F17.8°C 59.1°F15.1°C 84% Calm Calm 3.5 mph5.6 kmh 29.69 in1005.4 mb - 0.00 in0.0 mm 0.00 in0.0 mm
02:20 AM 64.0°F17.8°C 59.1°F15.1°C 84% 3.5 mph N5.6 kmh N 8.1 mph13.0 kmh 29.69 in1005.4 mb - 0.00 in0.0 mm 0.00 in0.0 mm
02:10 AM 64.0°F17.8°C 59.1°F15.1°C 84% 1.2 mph N1.9 kmh N 5.8 mph9.3 kmh 29.69 in1005.4 mb - 0.00 in0.0 mm 0.00 in0.0 mm
02:00 AM 64.0°F17.8°C 58.8°F14.9°C 83% 4.6 mph NNW7.4 kmh NNW 5.8 mph9.3 kmh 29.69 in1005.4 mb - 0.00 in0.0 mm 0.00 in0.0 mm
01:50 AM 64.0°F17.8°C 58.8°F14.9°C 83% Calm Calm -- 29.69 in1005.4 mb - 0.00 in0.0 mm 0.00 in0.0 mm
01:40 AM 64.0°F17.8°C 58.4°F14.7°C 82% 3.5 mph NNW5.6 kmh NNW 9.2 mph14.8 kmh 29.69 in1005.4 mb - 0.00 in0.0 mm 0.00 in0.0 mm
01:30 AM 64.2°F17.9°C 58.6°F14.8°C 82% 2.3 mph N3.7 kmh N 5.8 mph9.3 kmh 29.69 in1005.4 mb - 0.00 in0.0 mm 0.00 in0.0 mm
01:20 AM 64.4°F18.0°C 58.4°F14.7°C 81% 4.6 mph N7.4 kmh N 5.8 mph9.3 kmh 29.70 in1005.8 mb - 0.00 in0.0 mm 0.00 in0.0 mm
01:10 AM 64.6°F18.1°C 59.0°F15.0°C 82% 3.5 mph NNW5.6 kmh NNW 5.8 mph9.3 kmh 29.72 in1006.4 mb - 0.00 in0.0 mm 0.00 in0.0 mm
01:00 AM 64.6°F18.1°C 59.0°F15.0°C 82% 4.6 mph NW7.4 kmh NW 5.8 mph9.3 kmh 29.72 in1006.4 mb - 0.00 in0.0 mm 0.00 in0.0 mm
12:50 AM 64.8°F18.2°C 59.1°F15.1°C 82% 1.2 mph NW1.9 kmh NW 2.3 mph3.7 kmh 29.72 in1006.4 mb - 0.00 in0.0 mm 0.00 in0.0 mm
12:40 AM 64.9°F18.3°C 59.3°F15.2°C 82% 2.3 mph NNW3.7 kmh NNW 3.5 mph5.6 kmh 29.72 in1006.4 mb - 0.00 in0.0 mm 0.00 in0.0 mm
12:30 AM 64.9°F18.3°C 59.0°F15.0°C 81% 2.3 mph NW3.7 kmh NW 3.5 mph5.6 kmh 29.72 in1006.4 mb - 0.00 in0.0 mm 0.00 in0.0 mm
12:20 AM 65.1°F18.4°C 59.1°F15.1°C 81% 3.5 mph N5.6 kmh N 5.8 mph9.3 kmh 29.72 in1006.4 mb - 0.00 in0.0 mm 0.00 in0.0 mm
12:10 AM 65.3°F18.5°C 59.3°F15.2°C 81% 3.5 mph NNW5.6 kmh NNW 5.8 mph9.3 kmh 29.72 in1006.4 mb - 0.00 in0.0 mm 0.00 in0.0 mm
12:00 AM 65.3°F18.5°C 59.3°F15.2°C 81% 2.3 mph N3.7 kmh N 3.5 mph5.6 kmh 29.69 in1005.4 mb - 0.00 in0.0 mm 0.00 in0.0 mm